• Join FlightAware (Why Join?)
  • Login
  • US Flag 
09:46AM EST


 

Airport Tracker/Info


-or-


 

Live Flight TrackerFlight Track Log ✈ TRS265 ✈ 02-Apr-2014 ✈ KATL - KBOS

Flight Track Log - Related Links

Times and Time Zones

All times are in EDT time to prevent confusion due to time zone crossing. See the TRS265 flight status page for this flight to view local times or setup timezone preferences in your user account.

Time Position Orientation Groundspeed Altitude Reporting Facility
EDT Latitude Longitude Course Direction KTS MPH feet Rate Location/Type
03:12PM 33.6286 -84.4928 48° Northeast 450 518 2,600  Level Atlanta Center
03:13PM 33.5989 -84.5650 244° Southwest 338 389 4,300 1,920 Climbing Atlanta Center
03:14PM 33.5300 -84.5869 195° South 259 298 6,500 1,980 Climbing Atlanta Center
03:15PM 33.4653 -84.5692 167° South 300 345 8,300 1,980 Climbing Atlanta Center
03:16PM 33.4533 -84.4669 98° East 319 367 10,500 2,160 Climbing Atlanta Center
03:17PM 33.4556 -84.3600 89° East 325 374 12,700 2,100 Climbing Atlanta Center
03:18PM 33.9033 -83.7345 48° Northeast  Level FlightAware Approximate
03:18PM 33.4831 -84.2606 72° East 325 374 14,800  Level Atlanta Center
03:19PM 33.5603 -84.2083 29° Northeast 288 331 16,900 1,860 Climbing Atlanta Center
03:20PM 33.6481 -84.1536 27° Northeast 321 369 18,600 1,920 Climbing Atlanta Center
03:21PM 33.7294 -84.0914 32° Northeast 342 394 20,800 1,860 Climbing Atlanta Center
03:22PM 33.7881 -83.9889 55° Northeast 352 405 22,400 1,620 Climbing Atlanta Center
03:23PM 33.8442 -83.8761 59° Northeast 379 436 24,100 1,680 Climbing Atlanta Center
03:24PM 33.9044 -83.7608 58° Northeast 397 457 25,800 1,740 Climbing Atlanta Center
03:25PM 33.9689 -83.6531 54° Northeast 397 457 27,600 1,320 Climbing Atlanta Center
03:26PM 34.0417 -83.5350 53° Northeast 402 463 28,500 780 Climbing Atlanta Center
03:27PM 34.1142 -83.4217 52° Northeast 415 478 29,200 840 Climbing Atlanta Center
03:28PM 34.1867 -83.3056 53° Northeast 429 494 30,200 960 Climbing Atlanta Center
03:29PM 34.2608 -83.1842 54° Northeast 434 499 31,200 900 Climbing Atlanta Center
03:30PM 34.3350 -83.0628 53° Northeast 434 499 32,000 840 Climbing Atlanta Center
03:31PM 34.4114 -82.9436 52° Northeast 440 506 32,900 480 Climbing Atlanta Center
03:32PM 34.4831 -82.8192 55° Northeast 452 520 33,000  Climbing Atlanta Center
03:33PM 34.5569 -82.6944 54° Northeast 452 520 33,000  Level Atlanta Center
03:34PM 34.6267 -82.5897 51° Northeast 447 514 33,000  Level Atlanta Center
03:35PM 34.7025 -82.4722 52° Northeast 442 509 33,000  Level Atlanta Center
03:36PM 34.7781 -82.3494 53° Northeast 442 509 33,000  Level Atlanta Center
03:37PM 34.8536 -82.2289 53° Northeast 442 509 33,000  Level Atlanta Center
03:38PM 34.9350 -82.0981 53° Northeast 442 509 33,000  Level Atlanta Center
03:39PM 35.0083 -81.9744 54° Northeast 442 509 33,000  Level Atlanta Center
03:40PM 35.0789 -81.8458 56° Northeast 442 509 33,000  Level Atlanta Center
03:41PM 35.1456 -81.7172 58° Northeast 447 514 33,000  Level Atlanta Center
03:42PM 35.2139 -81.5881 57° Northeast 447 514 33,000  Level Atlanta Center
03:43PM 35.2822 -81.4589 57° Northeast 447 514 33,000  Level Atlanta Center
03:45PM 35.4183 -81.1972 57° Northeast 447 514 33,000  Level Atlanta Center
03:46PM 35.4839 -81.0622 59° Northeast 453 521 33,000  Level Atlanta Center
03:47PM 35.5558 -80.9294 56° Northeast 459 528 33,000  Level Atlanta Center
03:48PM 35.6175 -80.8122 57° Northeast 459 528 33,000  Level Atlanta Center
03:49PM 35.6847 -80.6817 58° Northeast 454 522 33,000  Level Atlanta Center
03:50PM 35.7542 -80.5483 57° Northeast 454 522 33,000  Level Atlanta Center
03:52PM 35.8978 -80.2664 58° Northeast 490 564 33,000  Level Washington Center
03:53PM 35.9656 -80.1344 58° Northeast 473 544 33,000  Level Washington Center
03:54PM 36.0261 -80.0172 57° Northeast 454 522 33,000  Level Washington Center
03:55PM 36.0978 -79.8850 56° Northeast 454 522 33,000  Level Washington Center
03:56PM 36.1736 -79.7503 55° Northeast 462 532 33,000  Level Washington Center
03:57PM 36.2558 -79.6053 55° Northeast 467 537 33,000  Level Washington Center
03:58PM 36.3222 -79.4872 55° Northeast 467 537 33,000  Level Washington Center
03:59PM 36.3953 -79.3567 55° Northeast 467 537 33,000  Level Washington Center
04:00PM 36.4769 -79.2108 55° Northeast 467 537 33,000  Level Washington Center
04:01PM 36.5428 -79.0975 54° Northeast 462 532 33,000  Level Washington Center
04:02PM 36.6156 -78.9689 55° Northeast 462 532 33,000  Level Washington Center
04:03PM 36.6858 -78.8347 57° Northeast 462 532 33,000  Level Washington Center
04:04PM 36.7583 -78.7056 55° Northeast 457 526 33,000  Level Washington Center
04:05PM 36.8283 -78.5761 56° Northeast 450 518 33,000  Level Washington Center
04:06PM 36.9047 -78.4386 55° Northeast 445 512 33,000  Level Washington Center
04:07PM 36.9767 -78.3036 56° Northeast 445 512 33,000  Level Washington Center
04:08PM 37.0461 -78.1783 55° Northeast 450 518 33,000  Level Washington Center
04:09PM 37.1136 -78.0506 56° Northeast 445 512 33,000  Level Washington Center
04:10PM 37.1828 -77.9225 56° Northeast 445 512 33,000  Level Washington Center
04:11PM 37.2542 -77.7914 56° Northeast 445 512 33,000  Level Washington Center
04:12PM 37.3233 -77.6603 56° Northeast 445 512 33,000  Level Washington Center
04:13PM 37.3922 -77.5289 57° Northeast 445 512 33,000  Level Washington Center
04:14PM 37.4631 -77.3972 56° Northeast 445 512 33,000  Level Washington Center
04:15PM 37.5439 -77.2811 49° Northeast 445 512 33,000  Level Washington Center
04:16PM 37.6369 -77.1864 39° Northeast 428 493 33,000  Level Washington Center
04:17PM 37.7258 -77.0936 40° Northeast 418 481 33,000  Level Washington Center
04:18PM 37.8208 -77.0008 38° Northeast 418 481 33,000  Level Washington Center
04:19PM 37.9136 -76.9106 38° Northeast 423 487 33,000  Level Washington Center
04:20PM 38.0083 -76.8197 37° Northeast 423 487 33,000  Level Washington Center
04:21PM 38.1011 -76.7292 38° Northeast 423 487 33,000  Level Washington Center
04:22PM 38.1936 -76.6406 37° Northeast 423 487 33,000  Level Washington Center
04:23PM 38.2861 -76.5492 38° Northeast 418 481 33,000  Level Washington Center
04:24PM 38.3764 -76.4631 37° Northeast 418 481 33,000  Level Washington Center
04:25PM 38.4689 -76.3714 38° Northeast 418 481 33,000  Level Washington Center
04:26PM 38.5569 -76.2819 38° Northeast 413 475 33,000  Level Washington Center
04:27PM 38.6469 -76.1925 38° Northeast 413 475 33,000 -60 Level Washington Center
04:28PM 38.7331 -76.1106 37° Northeast 418 481 32,900  Descending Washington Center
04:29PM 38.8250 -76.0181 38° Northeast 418 481 33,000  Climbing Washington Center
04:30PM 38.9150 -75.9278 38° Northeast 413 475 33,000  Level Washington Center
04:31PM 39.0089 -75.8347 38° Northeast 413 475 33,000 -60 Level Washington Center
04:32PM 39.0986 -75.7442 38° Northeast 413 475 32,900  Descending Washington Center
04:33PM 39.1906 -75.6533 37° Northeast 413 475 33,000  Climbing Washington Center
04:35PM 39.3583 -75.4833 38° Northeast 425 489 33,000  Level New York Center
04:36PM 39.4475 -75.3925 38° Northeast 425 489 33,000  Level New York Center
04:37PM 39.5367 -75.2986 39° Northeast 415 478 33,000  Level New York Center
04:38PM 39.6256 -75.2100 38° Northeast 409 471 33,000  Level New York Center
04:39PM 39.7256 -75.1003 40° Northeast 419 482 33,000  Level New York Center
04:40PM 39.8164 -75.0086 38° Northeast 419 482 33,000  Level New York Center
04:41PM 39.9094 -74.9114 39° Northeast 419 482 33,000  Level New York Center
04:42PM 39.9822 -74.8019 49° Northeast 419 482 33,000  Level New York Center
04:43PM 40.0614 -74.6792 50° Northeast 433 498 33,000  Level New York Center
04:44PM 40.1383 -74.5531 51° Northeast 438 504 33,000  Level New York Center
04:45PM 40.2281 -74.4167 49° Northeast 444 511 33,000 -600 Level New York Center
04:46PM 40.3111 -74.2931 49° Northeast 444 511 31,800 -1,560 Descending New York Center
04:48PM 40.4444 -74.0881 49° Northeast 426 490 28,600 -1,680 Descending Boston Center
04:49PM 40.5281 -73.9608 49° Northeast 420 483 27,000 -780 Descending Boston Center
04:50PM 40.6019 -73.8444 50° Northeast 417 480 27,000  Level Boston Center
04:51PM 40.6781 -73.7297 49° Northeast 417 480 27,000  Level Boston Center
04:52PM 40.7517 -73.6119 50° Northeast 416 479 27,000  Level Boston Center
04:53PM 40.8264 -73.4939 50° Northeast 418 481 27,000 -480 Level Boston Center
04:54PM 40.9014 -73.3778 49° Northeast 417 480 26,100 -1,020 Descending Boston Center
04:55PM 40.9872 -73.2528 48° Northeast 412 474 25,000 -1,080 Descending Boston Center
04:56PM 41.0600 -73.1447 48° Northeast 398 458 24,000 -1,020 Descending Boston Center
04:57PM 41.1306 -73.0369 49° Northeast 394 453 23,000 -540 Descending Boston Center
04:58PM 41.1814 -72.9056 63° Northeast 402 463 23,000  Level Boston Center
04:59PM 41.2317 -72.7728 63° Northeast 403 464 23,000  Level Boston Center
05:00PM 41.2889 -72.6194 64° Northeast 403 464 23,000  Level Boston Center
05:01PM 41.3400 -72.4836 63° Northeast 404 465 23,000  Level Boston Center
05:02PM 41.3889 -72.3486 64° Northeast 405 466 23,000 -660 Level Boston Center
05:03PM 41.4389 -72.2133 64° Northeast 405 466 21,700 -1,440 Descending Boston Center
05:04PM 41.4867 -72.0850 64° Northeast 390 449 20,100 -1,680 Descending Boston Center
05:05PM 41.5361 -71.9525 63° Northeast 372 428 18,400 -1,560 Descending Boston Center
05:06PM 41.5792 -71.8336 64° Northeast 360 414 16,900 -1,740 Descending Boston Center
05:07PM 41.6236 -71.7106 64° Northeast 367 422 14,900 -1,980 Descending Boston Center
05:08PM 41.6711 -71.5808 64° Northeast 367 422 12,900 -1,860 Descending Boston Center
05:09PM 41.7214 -71.4781 57° Northeast 342 394 11,200 -960 Descending Boston Center
05:10PM 41.7939 -71.4069 36° Northeast 306 352 11,000 -120 Descending Boston Center
05:11PM 41.8625 -71.3603 27° Northeast 280 322 11,000 -540 Level Boston Center
05:13PM 41.9292 -71.3131 28° Northeast 276 318 10,000 -1,140 Descending Boston Center
05:14PM 42.0500 -71.2333 26° Northeast 238 274 7,700 -1,260 Descending KA90
05:16PM 42.1167 -71.2000 20° North 229 264 6,300 -1,380 Descending KA90
05:17PM 42.1667 -71.1833 14° North 184 212 4,900 -1,500 Descending KA90
05:18PM 42.2167 -71.1500 26° Northeast 186 214 3,300 -1,200 Descending KA90
05:19PM 42.2500 -71.1000 48° Northeast 183 211 2,600 -780 Descending KA90
05:20PM 42.2833 -71.0500 48° Northeast 183 211 1,800 -960 Descending KA90
05:21PM 42.3333 -71.0333 14° North 152 175 700 -1,140 Descending KA90
05:23PM 42.3500 -71.0000 North  Level FlightAware Approximate
05:30PM 42.3630 -71.0064 North  Level Estimated